createdAt,value
2023-05-16T00:01:39.427Z,16.90
2023-05-16T00:04:26.553Z,18.47
2023-05-16T00:07:12.981Z,17.70
2023-05-16T00:09:59.310Z,15.70
2023-05-16T00:12:47.189Z,17.37
2023-05-16T00:15:33.714Z,20.60
2023-05-16T00:18:19.882Z,18.03
2023-05-16T00:21:07.115Z,16.47
2023-05-16T00:23:53.359Z,16.93
2023-05-16T00:26:39.884Z,15.57
2023-05-16T00:29:26.427Z,17.10
2023-05-16T00:32:12.786Z,18.20
2023-05-16T00:34:59.716Z,16.33
2023-05-16T00:37:48.956Z,16.67
2023-05-16T00:40:35.476Z,17.57
2023-05-16T00:43:21.943Z,19.93
2023-05-16T00:46:10.491Z,18.43
2023-05-16T00:48:57.062Z,17.30
2023-05-16T00:51:43.167Z,20.37
2023-05-16T00:54:30.687Z,18.23
2023-05-16T00:57:17.201Z,20.43
2023-05-16T01:00:10.580Z,22.93
2023-05-16T01:02:57.078Z,23.90
2023-05-16T01:05:44.135Z,22.83
2023-05-16T01:08:32.969Z,24.00
2023-05-16T01:11:41.351Z,24.93
2023-05-16T01:14:33.624Z,23.53
2023-05-16T01:17:32.532Z,26.63
2023-05-16T01:20:37.420Z,23.70
2023-05-16T01:23:41.844Z,21.20
2023-05-16T01:26:30.042Z,22.63
2023-05-16T01:29:16.785Z,22.80
2023-05-16T01:32:03.209Z,28.20
2023-05-16T01:34:52.229Z,23.80
2023-05-16T01:37:54.564Z,27.17
2023-05-16T01:40:53.488Z,31.23
2023-05-16T01:43:47.005Z,32.70
2023-05-16T01:46:38.931Z,28.53
2023-05-16T01:49:33.277Z,30.07
2023-05-16T01:52:27.634Z,27.17
2023-05-16T01:55:32.129Z,26.97
2023-05-16T01:58:26.112Z,30.93
2023-05-16T02:01:13.559Z,35.37
2023-05-16T02:04:00.016Z,30.10
2023-05-16T02:06:46.877Z,31.27
2023-05-16T02:09:36.481Z,32.17
2023-05-16T02:12:22.849Z,31.87
2023-05-16T02:15:10.100Z,34.83
2023-05-16T02:17:56.325Z,35.07
2023-05-16T02:20:42.672Z,37.73
2023-05-16T02:23:29.599Z,35.53
2023-05-16T02:26:16.040Z,34.53
2023-05-16T02:29:02.424Z,37.00
2023-05-16T02:31:48.838Z,40.37
2023-05-16T02:34:34.935Z,39.20
2023-05-16T02:37:21.356Z,38.13
2023-05-16T02:40:10.786Z,45.00
2023-05-16T02:42:57.185Z,42.50
2023-05-16T02:45:44.440Z,36.20
2023-05-16T02:48:30.767Z,40.33
2023-05-16T02:51:22.952Z,40.67
2023-05-16T02:54:09.979Z,44.90
2023-05-16T02:56:56.343Z,38.60
2023-05-16T02:59:42.887Z,39.17
2023-05-16T03:02:29.409Z,42.33
2023-05-16T03:05:16.973Z,44.67
2023-05-16T03:08:03.101Z,46.30
2023-05-16T03:10:49.744Z,38.13
2023-05-16T03:13:35.985Z,41.70
2023-05-16T03:16:22.206Z,46.43
2023-05-16T03:19:09.216Z,44.50
2023-05-16T03:21:55.561Z,45.33
2023-05-16T03:24:42.041Z,43.43
2023-05-16T03:27:31.224Z,43.73
2023-05-16T03:30:19.277Z,49.27
2023-05-16T03:33:05.772Z,41.87
2023-05-16T03:35:52.716Z,42.83
2023-05-16T03:38:38.946Z,42.13
2023-05-16T03:41:26.454Z,42.17
2023-05-16T03:44:12.957Z,43.23
2023-05-16T03:46:59.326Z,45.13
2023-05-16T03:49:45.814Z,43.07
2023-05-16T03:52:32.315Z,39.57
2023-05-16T03:55:18.598Z,46.63
2023-05-16T03:58:04.967Z,55.60
2023-05-16T04:00:51.257Z,45.07
2023-05-16T04:03:38.519Z,46.57
2023-05-16T04:06:24.968Z,45.73
2023-05-16T04:09:11.930Z,45.20
2023-05-16T04:12:01.729Z,42.93
2023-05-16T04:14:48.069Z,43.67
2023-05-16T04:17:34.787Z,47.07
2023-05-16T04:20:21.365Z,45.60
2023-05-16T04:23:07.559Z,50.00
2023-05-16T04:25:55.169Z,43.50
2023-05-16T04:28:41.623Z,40.63
2023-05-16T04:31:27.849Z,43.97
2023-05-16T04:34:15.875Z,46.13
2023-05-16T04:37:02.488Z,40.87
2023-05-16T04:39:49.126Z,47.73
2023-05-16T04:42:35.541Z,49.83
2023-05-16T04:45:21.837Z,39.80
2023-05-16T04:48:08.513Z,43.07
2023-05-16T04:50:55.559Z,41.47
2023-05-16T04:53:41.954Z,38.60
2023-05-16T04:56:28.357Z,39.17
2023-05-16T04:59:15.132Z,36.30
2023-05-16T05:02:01.722Z,40.97
2023-05-16T05:04:48.068Z,40.37
2023-05-16T05:07:34.819Z,39.33
2023-05-16T05:10:21.609Z,39.67
2023-05-16T05:13:08.162Z,34.10
2023-05-16T05:15:54.661Z,35.10
2023-05-16T05:18:41.157Z,36.80
2023-05-16T05:21:27.721Z,43.03
2023-05-16T05:24:14.303Z,37.13
2023-05-16T05:27:00.618Z,39.23
2023-05-16T05:29:46.880Z,36.03
2023-05-16T05:32:33.251Z,36.97
2023-05-16T05:35:19.777Z,34.70
2023-05-16T05:38:06.199Z,33.50
2023-05-16T05:40:52.937Z,39.63
2023-05-16T05:43:39.350Z,32.77
2023-05-16T05:46:26.205Z,36.60
2023-05-16T05:49:13.033Z,33.73
2023-05-16T05:51:59.690Z,33.10
2023-05-16T05:54:45.906Z,32.57
2023-05-16T05:57:32.419Z,38.23
2023-05-16T06:00:18.880Z,32.20
2023-05-16T06:03:05.313Z,33.63
2023-05-16T06:05:52.124Z,33.67
2023-05-16T06:08:38.402Z,31.07
2023-05-16T06:11:25.419Z,23.93
2023-05-16T06:14:12.002Z,28.33
2023-05-16T06:16:58.135Z,28.20
2023-05-16T06:19:44.425Z,28.63
2023-05-16T06:22:31.202Z,30.03
2023-05-16T06:25:17.559Z,32.03
2023-05-16T06:28:03.822Z,28.00
2023-05-16T06:30:51.863Z,31.70
2023-05-16T06:33:38.401Z,27.87
2023-05-16T06:36:24.831Z,32.90
2023-05-16T06:39:11.076Z,33.30
2023-05-16T06:41:58.468Z,32.40
2023-05-16T06:44:44.773Z,29.90
2023-05-16T06:47:31.172Z,33.07
2023-05-16T06:50:17.502Z,31.43
2023-05-16T06:53:05.048Z,32.60
2023-05-16T06:55:51.567Z,34.57
2023-05-16T06:58:38.224Z,36.23
2023-05-16T07:01:24.781Z,29.30
2023-05-16T07:04:11.444Z,30.47
2023-05-16T07:06:57.584Z,24.37
2023-05-16T07:09:44.377Z,25.30
2023-05-16T07:12:31.318Z,25.83
2023-05-16T07:15:17.623Z,26.00
2023-05-16T07:18:04.081Z,22.67
2023-05-16T07:20:51.036Z,27.00
2023-05-16T07:23:40.169Z,23.93
2023-05-16T07:26:26.750Z,25.77
2023-05-16T07:29:13.082Z,20.27
2023-05-16T07:31:59.628Z,25.23
2023-05-16T07:34:46.136Z,25.37
2023-05-16T07:37:32.363Z,22.50
2023-05-16T07:40:20.872Z,25.67
2023-05-16T07:43:07.062Z,17.03
2023-05-16T07:45:53.753Z,20.70
2023-05-16T07:48:40.415Z,20.27
2023-05-16T07:51:27.024Z,19.63
2023-05-16T07:54:13.558Z,18.90
2023-05-16T07:57:00.306Z,17.47
2023-05-16T07:59:47.028Z,18.77
2023-05-16T08:02:34.558Z,18.13
2023-05-16T08:05:21.515Z,18.83
2023-05-16T08:08:08.060Z,22.63
2023-05-16T08:10:54.641Z,23.63
2023-05-16T08:13:41.302Z,23.17
2023-05-16T08:16:27.880Z,20.10
2023-05-16T08:19:14.642Z,22.07
2023-05-16T08:22:01.842Z,20.00
2023-05-16T08:24:48.138Z,24.50
2023-05-16T08:27:34.514Z,21.13
2023-05-16T08:30:21.014Z,20.57
2023-05-16T08:33:07.362Z,21.33
2023-05-16T08:35:54.076Z,23.73
2023-05-16T08:38:40.818Z,21.53
2023-05-16T08:41:27.114Z,20.63
2023-05-16T08:44:21.088Z,22.50
2023-05-16T08:47:18.918Z,17.73
2023-05-16T08:50:09.170Z,19.90
2023-05-16T08:52:55.862Z,18.63
2023-05-16T08:55:44.235Z,17.97
2023-05-16T08:58:30.756Z,23.37
2023-05-16T09:01:18.451Z,22.77
2023-05-16T09:04:08.463Z,24.40
2023-05-16T09:06:55.092Z,17.83
2023-05-16T09:09:42.673Z,19.67
2023-05-16T09:12:28.973Z,18.07
2023-05-16T09:15:19.985Z,20.17
2023-05-16T09:18:12.688Z,15.37
2023-05-16T09:21:00.114Z,15.70
2023-05-16T09:23:49.508Z,18.93
2023-05-16T09:26:38.079Z,12.83
2023-05-16T09:29:24.405Z,17.63
2023-05-16T09:32:14.101Z,13.73
2023-05-16T09:35:00.536Z,13.87
2023-05-16T09:37:53.051Z,14.40
2023-05-16T09:40:41.961Z,12.03
2023-05-16T09:43:28.524Z,12.90
2023-05-16T09:46:15.613Z,12.00
2023-05-16T09:49:02.946Z,10.77
2023-05-16T09:51:49.721Z,9.80
2023-05-16T09:54:36.378Z,10.83
2023-05-16T09:57:23.616Z,9.07
2023-05-16T10:00:13.473Z,8.63
2023-05-16T10:03:03.492Z,9.73
2023-05-16T10:05:53.031Z,9.53
2023-05-16T10:08:43.202Z,9.40
2023-05-16T10:11:30.386Z,8.60
2023-05-16T10:14:18.990Z,8.83
2023-05-16T10:17:07.710Z,7.63
2023-05-16T10:19:54.287Z,7.70
2023-05-16T10:22:43.716Z,6.73
2023-05-16T10:25:39.055Z,7.33
2023-05-16T10:28:26.236Z,5.40
2023-05-16T10:31:13.269Z,5.93
2023-05-16T10:34:00.281Z,7.03
2023-05-16T10:36:47.636Z,8.07
2023-05-16T10:39:34.772Z,5.47
2023-05-16T10:42:24.009Z,6.03
2023-05-16T10:45:20.393Z,8.03
2023-05-16T10:48:08.888Z,6.47
2023-05-16T10:50:55.560Z,7.23
2023-05-16T10:53:41.829Z,8.33
2023-05-16T10:56:28.721Z,6.47
2023-05-16T10:59:26.488Z,5.67
2023-05-16T11:02:24.067Z,6.60
2023-05-16T11:05:17.938Z,8.03
2023-05-16T11:08:06.553Z,5.13
2023-05-16T11:11:31.706Z,5.97
2023-05-16T11:14:21.543Z,5.87
2023-05-16T11:17:08.151Z,4.13
2023-05-16T11:20:01.378Z,4.97
2023-05-16T11:22:47.755Z,7.33
2023-05-16T11:25:43.721Z,4.93
2023-05-16T11:28:30.164Z,4.47
2023-05-16T11:31:18.623Z,4.90
2023-05-16T11:34:05.877Z,4.80
2023-05-16T11:36:52.617Z,3.57
2023-05-16T11:39:39.230Z,3.13
2023-05-16T11:42:29.781Z,3.33
2023-05-16T11:45:18.220Z,3.70
2023-05-16T11:48:05.147Z,3.47
2023-05-16T11:50:53.614Z,3.07
2023-05-16T11:53:40.277Z,3.50
2023-05-16T11:56:27.506Z,5.13
2023-05-16T11:59:14.095Z,2.60
2023-05-16T12:02:04.578Z,3.13
2023-05-16T12:04:51.118Z,2.60
2023-05-16T12:07:38.176Z,5.00
2023-05-16T12:10:24.932Z,3.23
2023-05-16T12:13:11.921Z,4.87
2023-05-16T12:15:58.889Z,2.83
2023-05-16T12:18:45.750Z,3.50
2023-05-16T12:21:36.194Z,4.37
2023-05-16T12:24:30.354Z,3.70
2023-05-16T12:27:25.414Z,4.13
2023-05-16T12:30:12.254Z,5.27
2023-05-16T12:32:59.194Z,2.47
2023-05-16T12:35:47.337Z,17.47
2023-05-16T12:38:34.399Z,3.53
2023-05-16T12:41:22.507Z,2.70
2023-05-16T12:44:18.088Z,4.37
2023-05-16T12:47:11.623Z,2.60
2023-05-16T12:49:57.931Z,3.03
2023-05-16T12:52:49.632Z,2.57
2023-05-16T12:55:35.967Z,2.47
2023-05-16T12:58:22.892Z,9.03
2023-05-16T13:01:09.486Z,4.60
2023-05-16T13:03:56.068Z,3.37
2023-05-16T13:06:57.620Z,2.80
2023-05-16T13:09:45.864Z,2.20
2023-05-16T13:12:32.296Z,2.00
2023-05-16T13:15:19.041Z,2.50
2023-05-16T13:18:05.526Z,5.23
2023-05-16T13:20:53.001Z,2.10
2023-05-16T13:23:39.232Z,7.97
2023-05-16T13:26:26.541Z,1.50
2023-05-16T13:29:13.033Z,1.70
2023-05-16T13:31:59.294Z,3.17
2023-05-16T13:34:45.758Z,1.80
2023-05-16T13:37:32.116Z,6.50
2023-05-16T13:40:18.406Z,3.23
2023-05-16T13:43:05.606Z,2.13
2023-05-16T13:45:52.786Z,2.33
2023-05-16T13:48:39.391Z,3.00
2023-05-16T13:51:25.946Z,2.97
2023-05-16T13:54:12.491Z,2.17
2023-05-16T13:56:58.937Z,1.90
2023-05-16T14:00:11.352Z,3.07
2023-05-16T14:02:57.847Z,2.43
2023-05-16T14:05:44.786Z,2.77
2023-05-16T14:08:31.321Z,2.07
2023-05-16T14:11:19.770Z,3.30
2023-05-16T14:14:06.452Z,3.57
2023-05-16T14:16:52.788Z,3.60
2023-05-16T14:19:39.345Z,3.30
2023-05-16T14:22:26.000Z,4.07
2023-05-16T14:25:12.529Z,6.33
2023-05-16T14:27:59.328Z,2.43
2023-05-16T14:30:47.346Z,3.73
2023-05-16T14:33:34.341Z,2.83
2023-05-16T14:36:20.947Z,4.23
2023-05-16T14:39:08.432Z,5.50
2023-05-16T14:41:54.658Z,2.73
2023-05-16T14:44:40.871Z,2.80
2023-05-16T14:47:28.538Z,2.77
2023-05-16T14:50:14.955Z,1.93
2023-05-16T14:53:01.576Z,4.63
2023-05-16T14:55:48.767Z,2.33
2023-05-16T14:58:35.122Z,3.10
2023-05-16T15:01:22.322Z,4.23
2023-05-16T15:04:08.945Z,5.77
2023-05-16T15:06:55.900Z,2.97
2023-05-16T15:09:42.280Z,2.70
2023-05-16T15:12:28.885Z,4.53
2023-05-16T15:15:16.620Z,3.50
2023-05-16T15:18:03.092Z,4.57
2023-05-16T15:20:49.604Z,2.80
2023-05-16T15:23:36.515Z,2.47
2023-05-16T15:26:23.112Z,2.97
2023-05-16T15:29:09.636Z,3.60
2023-05-16T15:31:56.487Z,2.20
2023-05-16T15:34:42.676Z,3.40
2023-05-16T15:37:28.881Z,3.43
2023-05-16T15:40:15.658Z,6.23
2023-05-16T15:43:02.067Z,4.30
2023-05-16T15:45:48.383Z,3.57
2023-05-16T15:48:35.038Z,2.87
2023-05-16T15:51:21.527Z,6.33
2023-05-16T15:54:08.269Z,2.67
2023-05-16T15:56:54.853Z,2.70
2023-05-16T15:59:41.422Z,1.90
2023-05-16T16:02:27.686Z,2.50
2023-05-16T16:05:13.967Z,3.80
2023-05-16T16:08:00.426Z,3.40
2023-05-16T16:10:47.338Z,4.03
2023-05-16T16:13:34.122Z,5.73
2023-05-16T16:16:20.447Z,2.27
2023-05-16T16:19:08.094Z,3.33
2023-05-16T16:21:54.579Z,3.67
2023-05-16T16:24:40.800Z,2.77
2023-05-16T16:27:27.302Z,3.37
2023-05-16T16:30:13.957Z,7.03
2023-05-16T16:33:00.697Z,3.57
2023-05-16T16:35:47.530Z,21.40
2023-05-16T16:38:34.110Z,7.93
2023-05-16T16:41:20.757Z,3.47
2023-05-16T16:44:07.007Z,2.17
2023-05-16T16:46:53.358Z,12.87
2023-05-16T16:49:39.966Z,3.03
2023-05-16T16:52:26.186Z,4.63
2023-05-16T16:55:13.116Z,2.37
2023-05-16T16:57:59.405Z,2.17
2023-05-16T17:00:46.106Z,3.63
2023-05-16T17:03:32.780Z,2.57
2023-05-16T17:06:19.371Z,4.70
2023-05-16T17:09:06.963Z,5.60
2023-05-16T17:11:53.489Z,5.50
2023-05-16T17:14:39.827Z,3.63
2023-05-16T17:17:26.413Z,3.10
2023-05-16T17:20:13.200Z,8.80
2023-05-16T17:22:59.974Z,2.57
2023-05-16T17:25:46.525Z,4.57
2023-05-16T17:28:32.588Z,4.13
2023-05-16T17:31:19.334Z,3.13
2023-05-16T17:34:05.873Z,3.93
2023-05-16T17:36:52.309Z,3.23
2023-05-16T17:39:38.871Z,1.57
2023-05-16T17:42:25.679Z,4.53
2023-05-16T17:45:16.310Z,3.37
2023-05-16T17:48:03.033Z,1.70
2023-05-16T17:50:50.057Z,3.20
2023-05-16T17:53:37.527Z,2.30
2023-05-16T17:56:23.851Z,2.87
2023-05-16T17:59:10.682Z,1.43
2023-05-16T18:02:00.008Z,3.40
2023-05-16T18:04:47.132Z,2.00
2023-05-16T18:07:34.101Z,1.20
2023-05-16T18:10:20.897Z,6.07
2023-05-16T18:13:07.329Z,3.93
2023-05-16T18:15:53.829Z,3.17
2023-05-16T18:18:40.374Z,1.60
2023-05-16T18:21:27.580Z,4.47
2023-05-16T18:24:15.880Z,2.73
2023-05-16T18:27:03.186Z,3.13
2023-05-16T18:29:49.731Z,1.93
2023-05-16T18:32:36.577Z,2.53
2023-05-16T18:35:23.798Z,3.87
2023-05-16T18:38:20.089Z,1.47
2023-05-16T18:41:17.188Z,2.40
2023-05-16T18:44:03.749Z,2.00
2023-05-16T18:46:50.110Z,2.50
2023-05-16T18:49:39.322Z,1.70
2023-05-16T18:52:25.914Z,4.00
2023-05-16T18:55:13.532Z,2.50
2023-05-16T18:57:59.850Z,3.73
2023-05-16T19:00:46.800Z,2.03
2023-05-16T19:03:33.550Z,13.37
2023-05-16T19:06:20.234Z,2.97
2023-05-16T19:09:07.418Z,2.17
2023-05-16T19:11:53.913Z,3.67
2023-05-16T19:14:40.551Z,1.67
2023-05-16T19:17:27.210Z,1.57
2023-05-16T19:20:13.694Z,3.77
2023-05-16T19:23:00.915Z,3.23
2023-05-16T19:25:49.046Z,1.80
2023-05-16T19:28:35.342Z,1.63
2023-05-16T19:31:21.669Z,1.90
2023-05-16T19:34:08.324Z,4.33
2023-05-16T19:36:55.272Z,3.07
2023-05-16T19:39:41.444Z,2.40
2023-05-16T19:42:27.698Z,4.50
2023-05-16T19:45:14.188Z,2.67
2023-05-16T19:48:00.864Z,2.27
2023-05-16T19:50:47.369Z,2.33
2023-05-16T19:53:33.971Z,3.87
2023-05-16T19:56:23.147Z,3.67
2023-05-16T19:59:09.609Z,3.97
2023-05-16T20:01:56.011Z,7.10
2023-05-16T20:04:42.674Z,3.37
2023-05-16T20:07:29.145Z,2.47
2023-05-16T20:10:19.804Z,2.07
2023-05-16T20:13:07.502Z,3.47
2023-05-16T20:15:53.865Z,1.50
2023-05-16T20:18:40.160Z,2.53
2023-05-16T20:21:26.770Z,1.70
2023-05-16T20:24:14.288Z,1.67
2023-05-16T20:27:01.397Z,5.23
2023-05-16T20:29:54.601Z,2.50
2023-05-16T20:32:41.101Z,3.00
2023-05-16T20:35:27.644Z,3.47
2023-05-16T20:38:13.969Z,2.40
2023-05-16T20:41:00.516Z,7.63
2023-05-16T20:43:46.874Z,2.73
2023-05-16T20:46:33.528Z,2.33
2023-05-16T20:49:19.826Z,4.13
2023-05-16T20:52:06.770Z,3.33
2023-05-16T20:54:53.153Z,4.67
2023-05-16T20:57:41.701Z,3.03
2023-05-16T21:00:29.658Z,3.77
2023-05-16T21:03:16.452Z,4.40
2023-05-16T21:06:02.722Z,4.10
2023-05-16T21:08:48.965Z,2.53
2023-05-16T21:11:36.067Z,5.23
2023-05-16T21:14:22.882Z,5.73
2023-05-16T21:17:09.517Z,8.87
2023-05-16T21:19:55.996Z,3.00
2023-05-16T21:22:42.591Z,6.13
2023-05-16T21:25:29.317Z,2.47
2023-05-16T21:28:15.872Z,4.80
2023-05-16T21:31:02.436Z,3.13
2023-05-16T21:33:51.921Z,2.47
2023-05-16T21:36:38.518Z,2.63
2023-05-16T21:39:24.848Z,7.23
2023-05-16T21:42:11.387Z,2.00
2023-05-16T21:44:57.907Z,5.00
2023-05-16T21:47:44.617Z,2.37
2023-05-16T21:50:31.020Z,4.10
2023-05-16T21:53:18.990Z,6.93
2023-05-16T21:56:06.358Z,2.50
2023-05-16T21:58:53.024Z,5.33
2023-05-16T22:01:39.634Z,5.30
2023-05-16T22:04:26.978Z,4.87
2023-05-16T22:07:13.354Z,1.63
2023-05-16T22:09:59.729Z,3.83
2023-05-16T22:12:46.493Z,5.13
2023-05-16T22:15:32.753Z,2.80
2023-05-16T22:18:19.116Z,1.27
2023-05-16T22:21:06.195Z,1.50
2023-05-16T22:23:52.479Z,2.37
2023-05-16T22:26:38.931Z,2.47
2023-05-16T22:29:25.123Z,1.20
2023-05-16T22:32:11.709Z,1.57
2023-05-16T22:34:57.881Z,2.13
2023-05-16T22:37:44.410Z,4.80
2023-05-16T22:40:30.883Z,1.07
2023-05-16T22:43:17.545Z,1.57
2023-05-16T22:46:04.174Z,4.23
2023-05-16T22:48:50.836Z,2.93
2023-05-16T22:51:37.085Z,3.23
2023-05-16T22:54:23.497Z,4.03
2023-05-16T22:57:10.433Z,3.20
2023-05-16T22:59:57.036Z,4.80
2023-05-16T23:02:43.855Z,2.10
2023-05-16T23:05:30.547Z,2.63
2023-05-16T23:08:16.960Z,3.03
2023-05-16T23:11:03.560Z,2.33
2023-05-16T23:13:50.619Z,2.77
2023-05-16T23:16:36.890Z,3.30
2023-05-16T23:19:23.217Z,2.77
2023-05-16T23:22:09.531Z,1.90
2023-05-16T23:24:56.460Z,3.10
2023-05-16T23:27:43.214Z,5.57
2023-05-16T23:30:29.812Z,1.20
2023-05-16T23:33:16.389Z,1.63
2023-05-16T23:36:02.785Z,3.20
2023-05-16T23:38:48.988Z,2.20
2023-05-16T23:41:35.424Z,2.50
2023-05-16T23:44:22.116Z,3.10
2023-05-16T23:47:08.923Z,2.10
2023-05-16T23:49:55.408Z,2.97
2023-05-16T23:52:41.704Z,5.43
2023-05-16T23:55:28.444Z,5.27
2023-05-16T23:58:14.895Z,4.40
